KCCB/CCB METAR and TAF weather

Enter ICAO airport designator
Station Type Date Time Source
KCCB METAR 2023/01/29 18:50 UTC NOAA

KCCB 291850Z AUTO 00000KT 8SM SCT015 BKN021 BKN040 10/08 A2993 RMK AO2


Station Type Date Time Source
KCCB Decoded METAR 2023/01/29 18:50 UTC NOAA

Station name not available
Jan 29, 2023 - 01:50 PM EST / 2023.01.29 1850 UTC
Wind: Calm:0
Visibility: 8 mile(s):0
Sky conditions: mostly cloudy
Temperature: 50 F (10 C)
Dew Point: 46 F (8 C)
Relative Humidity: 87%
Pressure (altimeter): 29.93 in. Hg (1013 hPa)
ob: KCCB 291850Z AUTO 00000KT 8SM SCT015 BKN021 BKN040 10/08 A2993 RMK AO2
cycle: 19

Station Type Date Time Source
KCCB TAF UTC NOAA

Error!

Example: see airport list